Time;durP1;ratioP1;P1;durP2;ratioP2;P2;SDS_P1;SDS_P2;PMS_P1;PMS_P2;Temp;Humidity;BMP_temperature;BMP_pressure;BME280_temperature;BME280_humidity;BME280_pressure;Samples;Min_cycle;Max_cycle;Signal;HPM_P1;HPM_P2
2021/05/29 00:00:15;;;;;;;8.57;2.10;;;;;;;19.21;42.36;99072.09;6195671;23;20044;-85
2021/05/29 00:02:41;;;;;;;12.25;2.08;;;;;;;19.22;42.62;99079.19;6193951;23;20445;-85
2021/05/29 00:05:07;;;;;;;9.05;1.90;;;;;;;19.12;42.67;99061.34;6137424;23;20060;-84
2021/05/29 00:07:34;;;;;;;5.65;1.92;;;;;;;19.05;42.60;99057.66;6162098;23;20025;-85
2021/05/29 00:09:59;;;;;;;7.13;2.05;;;;;;;19.16;42.69;99069.94;6189760;23;20052;-84
2021/05/29 00:12:27;;;;;;;10.60;1.90;;;;;;;19.11;42.63;99062.38;6189311;23;20032;-85
2021/05/29 00:14:53;;;;;;;9.73;2.17;;;;;;;19.08;42.78;99056.47;6185727;23;20017;-86
2021/05/29 00:17:19;;;;;;;5.72;1.65;;;;;;;19.11;42.58;99062.38;6186493;23;20013;-86
2021/05/29 00:19:46;;;;;;;8.40;2.03;;;;;;;19.15;42.66;99068.25;6136717;23;20025;-84
2021/05/29 00:22:12;;;;;;;24.25;2.47;;;;;;;19.15;42.47;99069.09;6161521;23;20028;-85
2021/05/29 00:24:38;;;;;;;12.60;1.80;;;;;;;19.17;42.41;99067.03;6136701;23;20470;-85
2021/05/29 00:27:04;;;;;;;9.32;2.15;;;;;;;19.20;42.43;99067.69;6187193;23;20025;-85
2021/05/29 00:29:30;;;;;;;18.38;2.17;;;;;;;19.17;42.51;99056.19;6161439;23;20104;-85
2021/05/29 00:31:56;;;;;;;12.52;2.03;;;;;;;19.25;42.44;99059.84;6186255;23;20021;-85
2021/05/29 00:34:22;;;;;;;6.03;1.60;;;;;;;19.27;42.47;99066.78;6112717;23;20144;-85
2021/05/29 00:36:48;;;;;;;6.43;1.90;;;;;;;19.28;42.39;99062.19;6186143;23;20044;-87
2021/05/29 00:39:14;;;;;;;7.00;2.20;;;;;;;19.30;42.34;99071.81;6136701;23;20096;-86
2021/05/29 00:41:40;;;;;;;8.30;2.25;;;;;;;19.33;42.28;99070.59;6186223;23;20441;-85
2021/05/29 00:44:06;;;;;;;7.22;2.50;;;;;;;19.33;42.24;99070.59;6187897;23;20055;-87
2021/05/29 00:46:32;;;;;;;6.10;2.35;;;;;;;19.36;42.39;99070.22;6161568;23;20021;-85
2021/05/29 00:48:58;;;;;;;8.32;2.03;;;;;;;19.33;42.13;99076.88;6161635;23;20021;-86
2021/05/29 00:51:24;;;;;;;5.90;2.20;;;;;;;19.36;42.08;99071.06;6186305;23;20107;-87
2021/05/29 00:53:53;;;;;;;7.10;1.90;;;;;;;19.41;41.96;99074.09;6187311;23;20024;-84
2021/05/29 00:56:18;;;;;;;2.63;1.73;;;;;;;19.45;41.76;99071.84;6191390;23;20024;-85
2021/05/29 00:58:44;;;;;;;11.50;2.10;;;;;;;19.49;41.53;99064.19;6202164;23;20021;-84
2021/05/29 01:01:10;;;;;;;8.82;2.30;;;;;;;19.54;41.56;99070.72;6210534;23;20020;-83
2021/05/29 01:03:37;;;;;;;5.47;1.90;;;;;;;19.55;41.67;99061.53;6209012;23;20071;-85
2021/05/29 01:06:06;;;;;;;10.57;3.22;;;;;;;19.53;41.65;99050.06;6145519;23;20531;-86
2021/05/29 01:08:33;;;;;;;4.65;1.88;;;;;;;19.61;41.32;99060.78;6187349;23;20066;-84
2021/05/29 01:10:59;;;;;;;2.65;1.40;;;;;;;19.63;41.21;99058.78;6188004;23;20021;-86
2021/05/29 01:13:30;;;;;;;9.02;1.77;;;;;;;19.71;41.17;99062.41;6136644;23;20327;-85
2021/05/29 01:16:04;;;;;;;6.30;1.80;;;;;;;19.73;41.18;99044.09;6162262;23;20123;-85
2021/05/29 01:18:30;;;;;;;8.27;2.03;;;;;;;19.81;41.03;99060.25;6136588;23;20021;-85
2021/05/29 01:20:57;;;;;;;12.95;1.80;;;;;;;19.86;40.82;99065.97;6185930;23;20052;-84
2021/05/29 01:23:23;;;;;;;12.02;2.75;;;;;;;19.89;40.87;99055.53;6185686;23;20020;-83
2021/05/29 01:25:49;;;;;;;3.50;1.83;;;;;;;19.93;40.66;99064.16;6185812;23;20031;-83
2021/05/29 01:28:20;;;;;;;6.50;1.80;;;;;;;19.99;40.46;99066.13;6186475;23;20095;-85
2021/05/29 01:30:49;;;;;;;4.03;1.77;;;;;;;20.02;40.51;99064.91;6186156;23;20025;-85
2021/05/29 01:33:35;;;;;;;;;;;;;;;19.98;40.58;99059.00;6186513;23;20084;-85
2021/05/29 01:36:06;;;;;;;6.70;1.80;;;;;;;19.87;40.95;99067.63;6186528;23;19916;-85
2021/05/29 01:38:32;;;;;;;8.80;1.60;;;;;;;19.99;41.33;99076.97;6145111;23;20044;-85
2021/05/29 01:41:00;;;;;;;6.75;1.88;;;;;;;20.02;41.11;99063.03;6141208;23;20030;-86
2021/05/29 01:43:26;;;;;;;10.60;1.95;;;;;;;20.06;41.22;99069.75;6139362;23;20390;-85
2021/05/29 01:45:52;;;;;;;27.10;2.45;;;;;;;20.06;40.91;99064.31;6189269;23;20061;-86
2021/05/29 01:48:19;;;;;;;10.93;1.85;;;;;;;20.01;41.10;99064.06;6137284;23;20036;-84
2021/05/29 01:50:53;;;;;;;8.85;1.95;;;;;;;19.94;41.29;99062.31;6187221;23;20028;-86
2021/05/29 01:53:22;;;;;;;9.57;1.80;;;;;;;19.89;41.18;99050.13;6137383;23;20020;-83
2021/05/29 01:55:48;;;;;;;7.10;1.98;;;;;;;19.98;41.13;99052.75;6185845;23;20028;-85
2021/05/29 01:58:14;;;;;;;8.40;2.45;;;;;;;19.93;41.17;99056.00;6186597;23;20021;-87
2021/05/29 02:00:40;;;;;;;8.93;2.03;;;;;;;20.05;40.69;99057.22;6136963;23;20021;-85
2021/05/29 02:03:06;;;;;;;16.17;2.28;;;;;;;20.07;40.34;99049.72;6187008;23;20049;-87
2021/05/29 02:05:33;;;;;;;4.95;2.28;;;;;;;20.12;39.88;99050.00;6186883;23;20107;-86
2021/05/29 02:08:00;;;;;;;9.45;1.85;;;;;;;20.16;39.26;99044.16;6186772;23;20027;-86
2021/05/29 02:10:27;;;;;;;9.20;1.73;;;;;;;20.27;39.16;99049.97;6138554;23;20110;-86
2021/05/29 02:12:54;;;;;;;6.63;1.60;;;;;;;20.31;38.83;99036.81;6140187;23;20017;-84
2021/05/29 02:15:25;;;;;;;13.48;1.70;;;;;;;20.47;38.57;99052.03;6136913;23;20103;-86
2021/05/29 02:17:52;;;;;;;11.93;1.50;;;;;;;20.53;38.32;99052.13;6188321;23;20024;-86
2021/05/29 02:20:19;;;;;;;6.30;1.65;;;;;;;20.62;38.06;99052.84;6189229;23;20024;-84
2021/05/29 02:22:45;;;;;;;7.65;1.38;;;;;;;20.73;37.75;99040.63;6187825;23;20025;-84
2021/05/29 02:25:11;;;;;;;11.27;1.83;;;;;;;20.82;37.41;99050.31;6165936;23;20078;-85
2021/05/29 02:27:37;;;;;;;9.13;1.23;;;;;;;20.89;37.16;99045.78;6190591;23;20468;-83
2021/05/29 02:30:07;;;;;;;10.75;1.50;;;;;;;21.01;37.12;99043.34;6190498;23;20017;-84
2021/05/29 02:32:33;;;;;;;8.48;2.13;;;;;;;21.07;36.60;99045.28;6187173;23;20159;-84
2021/05/29 02:34:59;;;;;;;13.93;1.25;;;;;;;21.07;36.23;99037.13;6162554;23;20469;-85
2021/05/29 02:37:25;;;;;;;20.00;1.58;;;;;;;21.15;36.39;99038.88;6192057;23;20016;-86
2021/05/29 02:39:51;;;;;;;12.40;1.80;;;;;;;21.21;36.51;99043.50;6165172;23;20013;-84
2021/05/29 02:42:17;;;;;;;10.93;1.35;;;;;;;21.28;36.30;99044.38;6165324;23;20017;-86
2021/05/29 02:44:43;;;;;;;9.55;1.80;;;;;;;21.28;36.45;99045.22;6191949;23;20013;-84
2021/05/29 02:47:09;;;;;;;14.45;1.85;;;;;;;21.27;36.37;99031.84;6196246;23;20021;-85
2021/05/29 02:49:34;;;;;;;6.93;1.63;;;;;;;21.33;36.32;99036.50;6170162;23;20103;-87
2021/05/29 02:52:01;;;;;;;7.75;2.30;;;;;;;21.38;36.05;99041.34;6190713;23;20033;-84
2021/05/29 02:54:27;;;;;;;7.25;1.70;;;;;;;21.41;36.34;99033.63;6187815;23;20507;-83
2021/05/29 02:56:53;;;;;;;16.88;1.73;;;;;;;21.46;36.30;99033.84;6188267;23;20020;-85
2021/05/29 02:59:19;;;;;;;7.60;1.60;;;;;;;21.54;36.35;99028.25;6160172;23;20349;-85
2021/05/29 03:01:45;;;;;;;11.73;1.80;;;;;;;21.67;36.25;99029.38;6159781;23;20017;-84
2021/05/29 03:04:11;;;;;;;10.60;1.80;;;;;;;21.77;36.14;99016.22;6185085;23;20024;-84
2021/05/29 03:07:17;;;;;;;9.73;1.98;;;;;;;21.85;36.24;99039.69;6160074;23;20108;-84
2021/05/29 03:09:43;;;;;;;12.18;1.52;;;;;;;21.90;36.38;99035.34;6184195;23;20031;-83
2021/05/29 03:12:09;;;;;;;9.80;1.50;;;;;;;21.93;36.52;99037.66;6185866;23;20024;-87
2021/05/29 03:14:35;;;;;;;5.90;1.42;;;;;;;21.95;36.54;99035.56;6135884;23;20017;-84
2021/05/29 03:17:01;;;;;;;3.03;1.25;;;;;;;22.03;36.66;99038.09;6159553;23;20021;-84
2021/05/29 03:19:27;;;;;;;4.45;1.30;;;;;;;22.10;36.58;99029.13;6160071;23;20048;-85
2021/05/29 03:21:53;;;;;;;8.75;1.40;;;;;;;22.18;36.75;99039.84;6135221;23;20449;-79
2021/05/29 03:24:19;;;;;;;6.57;1.50;;;;;;;22.19;36.82;99036.94;6185613;23;20052;-80
2021/05/29 03:26:45;;;;;;;8.60;1.50;;;;;;;22.09;37.19;99036.44;6185568;23;20025;-80
2021/05/29 03:29:11;;;;;;;16.10;1.73;;;;;;;22.17;37.22;99038.19;6086789;23;20472;-78
2021/05/29 03:31:37;;;;;;;8.45;1.50;;;;;;;22.32;37.52;99038.84;6159401;23;20024;-80
2021/05/29 03:34:03;;;;;;;7.90;1.60;;;;;;;22.45;37.09;99035.31;6134427;23;20024;-79
2021/05/29 03:36:29;;;;;;;9.10;1.73;;;;;;;22.56;37.04;99037.41;6133077;23;20021;-79
2021/05/29 03:38:55;;;;;;;14.75;1.60;;;;;;;22.48;37.09;99013.94;6184049;23;20021;-78
2021/05/29 03:41:21;;;;;;;13.50;2.00;;;;;;;22.58;37.00;99031.78;6110436;23;20098;-79
2021/05/29 03:43:47;;;;;;;11.25;1.45;;;;;;;22.68;37.18;99026.72;6185413;23;20028;-80
2021/05/29 03:46:13;;;;;;;12.73;1.70;;;;;;;22.77;36.90;99029.06;6134369;23;20024;-80
2021/05/29 03:48:39;;;;;;;14.27;1.70;;;;;;;22.84;37.13;99017.34;6134034;23;20441;-79
2021/05/29 03:51:05;;;;;;;12.05;1.92;;;;;;;22.90;37.15;99028.22;6109848;23;20020;-80
2021/05/29 03:53:31;;;;;;;8.48;1.67;;;;;;;23.07;37.02;99022.38;6086364;23;20365;-81
2021/05/29 03:55:57;;;;;;;12.77;1.73;;;;;;;23.25;36.84;99023.41;6159006;23;20031;-79
2021/05/29 03:58:23;;;;;;;4.53;1.60;;;;;;;23.35;36.38;99022.13;6086333;23;20015;-79
2021/05/29 04:00:49;;;;;;;21.27;1.80;;;;;;;23.37;35.66;99022.75;6110041;23;20456;-79
2021/05/29 04:03:16;;;;;;;12.85;1.60;;;;;;;23.41;35.75;99018.53;6110562;23;20445;-79
2021/05/29 04:05:42;;;;;;;7.60;1.50;;;;;;;23.41;35.95;99024.84;6110290;23;20043;-81
2021/05/29 04:08:08;;;;;;;42.63;2.55;;;;;;;23.46;35.59;99016.84;6110344;23;20092;-81
2021/05/29 04:10:36;;;;;;;14.13;1.75;;;;;;;23.50;35.59;99023.53;6134780;23;20421;-78
2021/05/29 04:13:02;;;;;;;10.50;2.40;;;;;;;23.58;35.60;99019.72;6135048;23;20342;-79
2021/05/29 04:15:28;;;;;;;8.13;1.40;;;;;;;23.61;35.82;99022.03;6135497;23;20361;-78
2021/05/29 04:17:54;;;;;;;9.32;2.20;;;;;;;23.64;35.93;99007.13;6134626;23;20025;-79
2021/05/29 04:20:22;;;;;;;9.23;1.73;;;;;;;23.76;35.93;98999.97;6135156;23;20027;-80
2021/05/29 04:22:49;;;;;;;8.82;1.70;;;;;;;23.90;35.87;98998.88;6161953;23;20071;-82
2021/05/29 04:25:16;;;;;;;9.57;1.95;;;;;;;24.07;35.69;99006.56;6139516;23;20445;-83
2021/05/29 04:27:43;;;;;;;13.00;2.35;;;;;;;24.08;35.91;99008.25;6161970;23;20095;-80
2021/05/29 04:30:14;;;;;;;27.52;2.40;;;;;;;24.18;35.91;99000.41;6135138;23;20024;-81
2021/05/29 04:32:41;;;;;;;51.25;3.22;;;;;;;24.41;35.34;99000.72;6159346;23;20024;-81
2021/05/29 04:35:07;;;;;;;9.88;1.70;;;;;;;24.55;35.12;98998.72;6158735;23;20048;-78
2021/05/29 04:37:33;;;;;;;9.93;1.80;;;;;;;24.71;35.07;98989.13;6159481;23;20052;-78
2021/05/29 04:40:00;;;;;;;18.35;2.40;;;;;;;24.77;35.52;98996.44;6135107;23;20111;-79
2021/05/29 04:42:27;;;;;;;5.85;1.75;;;;;;;24.81;35.33;98989.47;6136312;23;20017;-81
2021/05/29 04:44:53;;;;;;;5.35;1.17;;;;;;;24.97;34.44;98985.31;6136480;23;20044;-80
2021/05/29 04:47:19;;;;;;;5.32;1.35;;;;;;;25.17;33.42;98990.66;6137626;23;20409;-84
2021/05/29 04:49:45;;;;;;;13.73;1.60;;;;;;;25.28;32.86;98984.44;6140874;23;20021;-81
2021/05/29 04:52:11;;;;;;;20.60;1.80;;;;;;;25.27;31.86;98981.91;6125053;23;20017;-82
2021/05/29 04:54:39;;;;;;;13.70;1.40;;;;;;;25.32;31.58;98974.72;6099900;23;20461;-84
2021/05/29 04:57:05;;;;;;;10.40;1.30;;;;;;;25.45;31.05;98979.19;6161556;23;20457;-81
2021/05/29 04:59:31;;;;;;;12.25;1.50;;;;;;;25.39;31.39;98972.75;6136762;23;20021;-82
2021/05/29 05:01:57;;;;;;;15.65;1.80;;;;;;;25.53;31.67;98978.03;6161178;23;20194;-82
2021/05/29 05:04:23;;;;;;;13.75;1.75;;;;;;;25.71;31.08;98980.78;6112141;23;20349;-80
2021/05/29 05:06:49;;;;;;;10.93;1.92;;;;;;;25.68;30.61;98967.53;6185194;23;20076;-80
2021/05/29 05:09:15;;;;;;;16.10;2.30;;;;;;;25.81;30.59;98970.16;6136777;23;20025;-82
2021/05/29 05:11:41;;;;;;;11.05;1.90;;;;;;;26.00;30.62;98978.34;6112848;23;20448;-80
2021/05/29 05:14:07;;;;;;;14.38;2.20;;;;;;;26.09;29.95;98974.19;6185563;23;20050;-80
2021/05/29 05:16:33;;;;;;;11.43;2.22;;;;;;;26.07;30.07;98968.97;6185483;23;20025;-83
2021/05/29 05:18:59;;;;;;;12.55;2.55;;;;;;;26.09;30.36;98976.94;6136649;23;20091;-79
2021/05/29 05:21:25;;;;;;;12.45;2.40;;;;;;;26.22;30.45;98970.44;6186184;23;20017;-82
2021/05/29 05:23:54;;;;;;;14.95;2.60;;;;;;;26.33;30.40;98966.91;6136563;23;20025;-82
2021/05/29 05:26:20;;;;;;;16.48;3.40;;;;;;;26.31;29.74;98964.38;6085911;23;20092;-81
2021/05/29 05:28:47;;;;;;;14.35;3.67;;;;;;;26.37;29.72;98966.19;6133880;23;20013;-79
2021/05/29 05:31:16;;;;;;;16.67;3.28;;;;;;;26.45;29.38;98953.22;6135380;23;20102;-80
2021/05/29 05:33:44;;;;;;;37.17;4.60;;;;;;;26.61;29.80;98958.88;6158805;23;20028;-81
2021/05/29 05:36:13;;;;;;;20.05;3.88;;;;;;;26.73;29.26;98961.63;6134329;23;20227;-79
2021/05/29 05:38:40;;;;;;;34.17;4.97;;;;;;;26.79;29.33;98957.94;6184274;23;20028;-78
2021/05/29 05:41:07;;;;;;;6.95;3.45;;;;;;;26.76;29.51;98961.16;6160980;23;20044;-79
2021/05/29 05:43:33;;;;;;;18.52;4.45;;;;;;;26.99;29.50;98964.97;6136238;23;20016;-79
2021/05/29 05:45:59;;;;;;;9.80;4.05;;;;;;;27.13;28.94;98960.97;6135981;23;20021;-81
2021/05/29 05:48:26;;;;;;;13.15;4.05;;;;;;;27.12;29.26;98945.59;6136389;23;20021;-80
2021/05/29 05:50:58;;;;;;;10.57;3.55;;;;;;;27.21;28.28;98955.09;6136517;23;20021;-78
2021/05/29 05:53:30;;;;;;;11.45;3.63;;;;;;;27.13;28.39;98949.16;6114795;23;20111;-80
2021/05/29 05:56:00;;;;;;;13.93;3.33;;;;;;;27.34;28.70;98951.25;6160674;23;20353;-80
2021/05/29 05:58:28;;;;;;;9.75;3.67;;;;;;;27.45;28.42;98949.56;6136524;23;20013;-79
2021/05/29 06:00:54;;;;;;;6.67;3.60;;;;;;;27.58;28.15;98947.41;6136011;23;20016;-80
2021/05/29 06:03:21;;;;;;;10.02;3.10;;;;;;;27.71;27.79;98951.75;6160256;23;20453;-81
2021/05/29 06:05:47;;;;;;;16.75;3.05;;;;;;;27.58;28.16;98947.41;6111500;23;20025;-81
2021/05/29 06:08:15;;;;;;;11.98;3.17;;;;;;;27.67;28.25;98939.59;6160323;23;20039;-80
2021/05/29 06:10:41;;;;;;;14.35;2.85;;;;;;;27.86;27.87;98939.44;6186137;23;20023;-81
2021/05/29 06:13:11;;;;;;;13.07;3.50;;;;;;;27.97;27.70;98944.06;6135394;23;20020;-81
2021/05/29 06:21:06;;;;;;;10.23;2.50;;;;;;;28.14;27.96;98939.44;6138988;23;20021;-80
2021/05/29 06:23:32;;;;;;;12.13;2.78;;;;;;;28.11;27.68;98934.44;6087300;23;20082;-80
2021/05/29 06:25:58;;;;;;;10.05;2.95;;;;;;;28.17;27.92;98927.97;6159757;23;20021;-80
2021/05/29 06:28:24;;;;;;;13.05;3.20;;;;;;;28.16;27.80;98931.78;6159904;23;20099;-80
2021/05/29 06:30:50;;;;;;;9.65;2.58;;;;;;;28.32;27.48;98925.50;6135558;23;20021;-81
2021/05/29 06:33:16;;;;;;;5.38;2.35;;;;;;;28.50;27.26;98921.69;6134931;23;20100;-79
2021/05/29 06:35:42;;;;;;;10.00;3.13;;;;;;;28.58;27.05;98922.34;6134724;23;20017;-80
2021/05/29 06:38:08;;;;;;;10.55;2.50;;;;;;;28.68;26.83;98922.53;6087138;23;20111;-79
2021/05/29 06:40:34;;;;;;;11.52;2.72;;;;;;;28.86;26.70;98921.44;6111587;23;20021;-80
2021/05/29 06:43:01;;;;;;;13.60;2.42;;;;;;;29.07;26.67;98915.16;6137429;23;20012;-78
2021/05/29 06:45:27;;;;;;;10.18;2.80;;;;;;;29.17;26.74;98904.28;6159491;23;20013;-79
2021/05/29 06:47:53;;;;;;;11.80;2.90;;;;;;;29.27;26.40;98909.94;6134951;23;20409;-78
2021/05/29 06:50:19;;;;;;;16.55;3.05;;;;;;;29.34;26.38;98914.41;6110773;23;20357;-80
2021/05/29 06:52:49;;;;;;;14.38;3.55;;;;;;;29.54;26.16;98911.94;6135048;23;20028;-79
2021/05/29 07:00:44;;;;;;;12.65;2.60;;;;;;;29.46;26.09;98906.88;6163445;23;20013;-78
2021/05/29 07:03:10;;;;;;;9.20;2.58;;;;;;;29.46;26.00;98895.84;6184875;23;20409;-80
2021/05/29 07:05:36;;;;;;;10.23;2.50;;;;;;;29.44;25.93;98892.53;6163335;23;20017;-81
2021/05/29 07:08:02;;;;;;;12.65;2.90;;;;;;;29.73;25.69;98902.25;6137102;23;20016;-79
2021/05/29 07:10:28;;;;;;;16.00;2.70;;;;;;;29.76;25.71;98896.25;6135546;23;20449;-81
2021/05/29 07:12:54;;;;;;;6.47;2.20;;;;;;;29.97;25.39;98899.19;6135051;23;20025;-82
2021/05/29 07:15:20;;;;;;;18.33;2.85;;;;;;;30.09;25.44;98908.16;6134846;23;20043;-79
2021/05/29 07:17:53;;;;;;;12.00;2.30;;;;;;;30.27;25.18;98892.34;6086487;23;20016;-79
2021/05/29 07:20:19;;;;;;;8.98;2.65;;;;;;;30.42;25.09;98886.97;6160833;23;20356;-79
2021/05/29 07:22:45;;;;;;;13.07;2.70;;;;;;;30.68;25.32;98891.56;6158990;23;20021;-79
2021/05/29 07:25:12;;;;;;;22.80;2.67;;;;;;;30.78;24.65;98890.03;6159240;23;20025;-80
2021/05/29 07:27:38;;;;;;;16.25;2.30;;;;;;;30.54;24.69;98878.50;6134977;23;20024;-79
2021/05/29 07:30:07;;;;;;;9.55;2.45;;;;;;;30.49;24.82;98877.38;6134913;23;20345;-79
2021/05/29 07:32:35;;;;;;;8.40;2.40;;;;;;;30.50;25.25;98872.69;6185438;23;20028;-79
2021/05/29 07:35:01;;;;;;;17.27;2.67;;;;;;;30.75;25.07;98866.56;6185619;23;20487;-79
2021/05/29 07:37:27;;;;;;;16.50;2.80;;;;;;;30.96;24.74;98870.28;6135233;23;20020;-79
2021/05/29 07:39:53;;;;;;;9.90;2.30;;;;;;;31.14;24.54;98874.50;6135350;23;20021;-79
2021/05/29 07:42:19;;;;;;;6.28;2.08;;;;;;;31.27;24.45;98864.91;6158698;23;20101;-79
2021/05/29 07:44:46;;;;;;;16.83;2.50;;;;;;;31.38;24.25;98858.34;6110587;23;20028;-80
2021/05/29 07:47:12;;;;;;;21.67;3.08;;;;;;;31.48;23.98;98865.84;6134719;23;20025;-79
2021/05/29 07:49:38;;;;;;;17.75;2.70;;;;;;;31.74;23.84;98867.56;6159594;23;20058;-79
2021/05/29 07:52:04;;;;;;;12.13;2.35;;;;;;;31.92;23.62;98849.69;6134617;23;20036;-79
2021/05/29 07:54:31;;;;;;;7.90;2.38;;;;;;;31.95;23.62;98854.66;6135047;23;20020;-79
2021/05/29 07:56:57;;;;;;;9.50;2.33;;;;;;;31.81;23.59;98857.09;6183829;23;20024;-79
2021/05/29 07:59:23;;;;;;;10.88;2.30;;;;;;;31.82;23.62;98860.66;6110356;23;20017;-78
2021/05/29 08:01:49;;;;;;;15.52;2.42;;;;;;;31.91;23.49;98848.03;6159608;23;20548;-78
2021/05/29 08:04:17;;;;;;;13.45;2.75;;;;;;;32.02;23.60;98851.63;6183450;23;20092;-79
2021/05/29 08:06:43;;;;;;;10.60;2.20;;;;;;;32.09;23.60;98844.72;6159423;23;20410;-79
2021/05/29 08:09:09;;;;;;;12.95;2.63;;;;;;;32.00;23.75;98835.31;6134216;23;20020;-79
2021/05/29 08:11:36;;;;;;;14.77;2.35;;;;;;;32.24;23.44;98845.84;6158578;23;20342;-80
2021/05/29 08:14:03;;;;;;;6.07;2.17;;;;;;;32.30;23.45;98839.19;6183842;23;20025;-79
2021/05/29 08:16:29;;;;;;;11.55;2.50;;;;;;;32.48;23.29;98846.94;6109656;23;20033;-78
2021/05/29 08:18:55;;;;;;;15.02;2.60;;;;;;;32.62;23.23;98848.03;6159572;23;20013;-79
2021/05/29 08:21:21;;;;;;;5.72;2.50;;;;;;;32.59;23.22;98832.00;6185834;23;20092;-80
2021/05/29 08:23:48;;;;;;;11.55;2.83;;;;;;;32.67;22.88;98843.63;6111775;23;20017;-80
2021/05/29 08:26:14;;;;;;;14.73;2.60;;;;;;;32.57;23.06;98819.53;6161014;23;20334;-80
2021/05/29 08:28:42;;;;;;;9.85;2.70;;;;;;;32.97;22.95;98826.94;6111970;23;20021;-78
2021/05/29 08:31:08;;;;;;;9.30;2.40;;;;;;;33.14;22.66;98821.09;6136672;23;20472;-79
2021/05/29 08:33:34;;;;;;;10.75;2.40;;;;;;;33.36;22.48;98824.31;6160637;23;20025;-79
2021/05/29 08:36:00;;;;;;;8.70;2.72;;;;;;;33.49;22.22;98811.78;6160531;23;20017;-79
2021/05/29 08:38:26;;;;;;;15.40;2.35;;;;;;;33.60;22.40;98824.47;6111705;23;20017;-79
2021/05/29 08:40:52;;;;;;;6.03;2.03;;;;;;;33.50;22.22;98807.06;6136158;23;20101;-77
2021/05/29 08:43:18;;;;;;;9.02;2.17;;;;;;;33.50;22.59;98807.06;6136344;23;20045;-79
2021/05/29 08:45:44;;;;;;;8.32;2.13;;;;;;;33.57;21.88;98797.31;6136743;23;20048;-79
2021/05/29 08:48:11;;;;;;;10.77;2.20;;;;;;;33.37;22.24;98802.97;6144493;23;20017;-79
2021/05/29 08:50:37;;;;;;;8.82;1.90;;;;;;;33.34;22.57;98809.06;6122683;23;20394;-79
2021/05/29 08:53:03;;;;;;;9.63;1.58;;;;;;;33.23;22.63;98805.53;6140375;23;20027;-80
2021/05/29 08:55:31;;;;;;;9.75;2.47;;;;;;;33.04;22.68;98796.19;6113053;23;20087;-79
2021/05/29 08:57:58;;;;;;;;;;;;;;;33.47;22.82;98791.84;6090587;23;20463;-80
2021/05/29 09:00:26;;;;;;;6.00;2.03;;;;;;;34.06;22.56;98799.22;6137725;23;19967;-78
2021/05/29 09:03:03;;;;;;;12.93;2.20;;;;;;;34.18;21.80;98796.06;6112508;23;20109;-78
2021/05/29 09:05:46;;;;;;;8.55;2.25;;;;;;;34.44;21.91;98799.44;6113146;23;20020;-79
2021/05/29 09:08:13;;;;;;;11.68;2.40;;;;;;;34.62;21.71;98795.13;6161771;23;20024;-78
2021/05/29 09:10:45;;;;;;;11.85;2.20;;;;;;;34.93;21.82;98783.66;6136067;23;20349;-79
2021/05/29 09:13:23;;;;;;;16.45;2.47;;;;;;;35.20;21.21;98766.41;6161259;23;20053;-79
2021/05/29 09:15:59;;;;;;;8.93;2.10;;;;;;;35.35;21.52;98788.41;6136428;23;20017;-79
2021/05/29 09:18:38;;;;;;;9.98;1.92;;;;;;;35.43;21.01;98771.09;6160360;23;20104;-79
2021/05/29 09:21:33;;;;;;;8.57;2.00;;;;;;;35.36;21.38;98773.41;6111701;23;20023;-80
2021/05/29 09:24:11;;;;;;;27.77;4.60;;;;;;;35.65;21.10;98766.91;6185187;23;20020;-78
2021/05/29 09:26:40;;;;;;;13.63;2.08;;;;;;;35.86;21.02;98762.66;6135763;23;20032;-79
2021/05/29 09:29:33;;;;;;;14.63;2.40;;;;;;;36.09;20.94;98762.88;6135605;23;20384;-79
2021/05/29 09:32:03;;;;;;;10.13;3.10;;;;;;;36.21;19.63;98768.78;6163899;23;20052;-79
2021/05/29 09:34:50;;;;;;;13.98;2.55;;;;;;;36.19;19.98;98765.50;6111461;23;20356;-77
2021/05/29 09:37:24;;;;;;;21.65;3.80;;;;;;;36.22;19.78;98753.72;6161757;23;20119;-79
2021/05/29 09:39:52;;;;;;;28.92;3.33;;;;;;;36.29;20.21;98748.59;6186204;23;20016;-79
2021/05/29 09:42:19;;;;;;;7.72;2.30;;;;;;;36.78;19.51;98738.75;6160089;23;20406;-78
2021/05/29 09:44:45;;;;;;;14.90;2.10;;;;;;;36.71;19.90;98755.06;6113428;23;20040;-80
2021/05/29 09:47:15;;;;;;;11.90;1.88;;;;;;;36.58;19.51;98744.75;6116058;23;20024;-79
2021/05/29 09:49:49;;;;;;;10.95;2.30;;;;;;;37.01;19.60;98741.66;6136656;23;20445;-79
2021/05/29 09:52:36;;;;;;;7.57;2.10;;;;;;;37.46;19.42;98745.41;6136853;23;20032;-79
2021/05/29 09:55:09;;;;;;;9.68;2.03;;;;;;;37.93;19.22;98751.56;6160303;23;20357;-78
2021/05/29 09:58:00;;;;;;;8.40;1.98;;;;;;;38.05;18.77;98737.03;6185076;23;20025;-78
2021/05/29 10:00:42;;;;;;;8.18;2.10;;;;;;;37.52;19.43;98746.13;6137889;23;20445;-78
2021/05/29 10:03:08;;;;;;;12.77;2.03;;;;;;;37.95;18.84;98734.50;6135486;23;20021;-80
2021/05/29 10:05:38;;;;;;;106.68;6.38;;;;;;;38.38;18.37;98732.00;6111309;23;20017;-79
2021/05/29 10:08:04;;;;;;;40.63;3.53;;;;;;;38.66;18.12;98734.56;6184957;23;20024;-78
2021/05/29 10:10:33;;;;;;;17.77;2.92;;;;;;;38.57;18.19;98726.16;6135618;23;20021;-79
2021/05/29 10:13:01;;;;;;;21.27;2.80;;;;;;;38.54;18.15;98722.03;6160855;23;20025;-80
2021/05/29 10:15:26;;;;;;;;;;;;;;;38.80;18.13;98736.13;6185265;23;20393;-78
2021/05/29 10:17:52;;;;;;;18.08;2.20;;;;;;;38.26;18.24;98724.19;6135284;23;19912;-78
2021/05/29 10:20:18;;;;;;;19.40;2.75;;;;;;;38.48;18.25;98722.50;6184550;23;20441;-79
2021/05/29 10:22:44;;;;;;;17.08;3.00;;;;;;;38.53;17.86;98725.16;6135092;23;20047;-78
2021/05/29 10:25:15;;;;;;;36.75;3.30;;;;;;;37.89;18.39;98715.13;6135286;23;20020;-80
2021/05/29 10:27:52;;;;;;;15.98;2.50;;;;;;;37.60;18.78;98717.50;6136014;23;20021;-79
2021/05/29 10:30:19;;;;;;;24.33;2.90;;;;;;;37.23;18.95;98715.81;6111328;23;20029;-79
2021/05/29 10:33:11;;;;;;;10.00;2.75;;;;;;;36.84;19.33;98720.81;6160080;23;20025;-78
2021/05/29 10:35:42;;;;;;;11.15;2.30;;;;;;;36.97;19.27;98712.78;6159915;23;20025;-80
2021/05/29 10:38:09;;;;;;;14.43;2.60;;;;;;;37.39;19.15;98717.13;6161072;23;20029;-78
2021/05/29 10:40:42;;;;;;;9.02;2.30;;;;;;;38.58;18.39;98711.06;6087065;23;20349;-78
2021/05/29 10:43:16;;;;;;;6.55;2.17;;;;;;;39.49;17.75;98707.47;6183893;23;20025;-79
2021/05/29 10:45:51;;;;;;;13.43;2.50;;;;;;;40.17;17.36;98710.59;6159480;23;20017;-80
2021/05/29 10:48:29;;;;;;;123.47;7.30;;;;;;;40.71;17.18;98707.25;6184543;23;20017;-81
2021/05/29 10:53:47;;;;;;;12.63;2.05;;;;;;;39.94;17.20;98711.91;6135918;23;20448;-79
2021/05/29 10:56:16;;;;;;;14.63;2.63;;;;;;;39.58;17.73;98705.53;6135095;23;20023;-80
2021/05/29 10:59:11;;;;;;;55.00;5.28;;;;;;;39.69;17.02;98714.44;6183786;23;20043;-79
2021/05/29 11:04:14;;;;;;;44.50;4.13;;;;;;;38.86;17.74;98704.13;6159731;23;20388;-80
2021/05/29 11:06:47;;;;;;;23.48;3.45;;;;;;;38.20;18.11;98700.34;6184393;23;20067;-81
2021/05/29 11:09:14;;;;;;;15.43;2.53;;;;;;;37.99;18.24;98693.66;6160343;23;20052;-79
2021/05/29 11:11:43;;;;;;;8.60;2.30;;;;;;;37.81;18.40;98692.72;6184356;23;20041;-80
2021/05/29 11:14:10;;;;;;;17.45;2.85;;;;;;;38.21;18.19;98690.81;6183999;23;20248;-79
2021/05/29 11:16:54;;;;;;;16.10;2.63;;;;;;;39.05;17.67;98689.03;6184032;23;20108;-80
2021/05/29 11:19:21;;;;;;;8.43;1.77;;;;;;;39.48;17.20;98691.88;6185062;23;20071;-79
2021/05/29 11:22:11;;;;;;;8.68;2.15;;;;;;;39.67;17.11;98696.28;6159427;23;20112;-79
2021/05/29 11:24:41;;;;;;;11.25;2.55;;;;;;;40.09;17.25;98680.59;6159605;23;20025;-79
2021/05/29 11:27:18;;;;;;;13.60;2.78;;;;;;;39.89;17.01;98689.72;6160557;23;20013;-80
2021/05/29 11:30:04;;;;;;;10.45;2.47;;;;;;;38.97;17.74;98690.66;6161136;23;20417;-82
2021/05/29 11:35:23;;;;;;;12.30;1.92;;;;;;;38.24;18.31;98670.66;6133859;23;20473;-80
2021/05/29 11:38:02;;;;;;;7.60;1.75;;;;;;;37.54;18.30;98676.91;6159016;23;20020;-81
2021/05/29 11:40:47;;;;;;;10.00;1.92;;;;;;;37.05;18.58;98671.09;6160858;23;20531;-79
2021/05/29 11:43:15;;;;;;;9.68;1.95;;;;;;;36.35;19.42;98669.44;6087539;23;20021;-80
2021/05/29 11:45:41;;;;;;;12.80;2.80;;;;;;;36.06;19.49;98680.84;6135121;23;20025;-79
2021/05/29 11:48:08;;;;;;;5.97;2.30;;;;;;;35.61;19.67;98679.66;6086963;23;20021;-81
2021/05/29 11:50:39;;;;;;;11.55;2.92;;;;;;;35.08;20.30;98685.47;6110740;23;20445;-78
2021/05/29 11:53:11;;;;;;;11.65;3.10;;;;;;;34.82;20.84;98677.44;6101299;23;20120;-80